createdAt,value
2018-11-03T00:00:23.801Z,4.10
2018-11-03T00:02:52.062Z,4.10
2018-11-03T00:05:20.316Z,4.00
2018-11-03T00:07:48.570Z,4.10
2018-11-03T00:10:16.810Z,4.10
2018-11-03T00:12:45.054Z,4.00
2018-11-03T00:15:13.292Z,4.00
2018-11-03T00:17:41.540Z,4.10
2018-11-03T00:20:09.770Z,4.10
2018-11-03T00:22:38.048Z,4.10
2018-11-03T00:25:07.490Z,4.10
2018-11-03T00:27:35.736Z,4.20
2018-11-03T00:30:05.163Z,4.20
2018-11-03T00:32:33.622Z,4.20
2018-11-03T00:35:01.891Z,4.30
2018-11-03T00:37:30.131Z,4.30
2018-11-03T00:39:58.373Z,4.30
2018-11-03T00:42:33.358Z,4.30
2018-11-03T00:45:01.616Z,4.30
2018-11-03T00:47:29.862Z,4.30
2018-11-03T00:49:58.103Z,4.30
2018-11-03T00:52:26.387Z,4.30
2018-11-03T00:54:55.071Z,4.30
2018-11-03T00:57:23.371Z,4.30
2018-11-03T00:59:51.592Z,4.40
2018-11-03T01:02:19.830Z,4.40
2018-11-03T01:04:48.049Z,4.40
2018-11-03T01:07:16.310Z,4.40
2018-11-03T01:09:44.557Z,4.40
2018-11-03T01:12:12.824Z,4.40
2018-11-03T01:14:41.070Z,4.40
2018-11-03T01:17:09.298Z,4.40
2018-11-03T01:19:37.542Z,4.40
2018-11-03T01:22:05.820Z,4.40
2018-11-03T01:24:34.067Z,4.40
2018-11-03T01:27:02.326Z,4.40
2018-11-03T01:29:30.575Z,4.40
2018-11-03T01:31:58.827Z,4.40
2018-11-03T01:34:27.075Z,4.40
2018-11-03T01:36:55.409Z,4.40
2018-11-03T01:39:23.641Z,4.30
2018-11-03T01:41:52.764Z,4.30
2018-11-03T01:44:21.040Z,4.40
2018-11-03T01:46:49.301Z,4.40
2018-11-03T01:49:17.544Z,4.40
2018-11-03T01:51:45.777Z,4.40
2018-11-03T01:54:14.025Z,4.40
2018-11-03T01:56:42.243Z,4.40
2018-11-03T01:59:10.468Z,4.40
2018-11-03T02:01:38.727Z,4.40
2018-11-03T02:04:06.979Z,4.40
2018-11-03T02:06:35.234Z,4.40
2018-11-03T02:09:11.484Z,4.40
2018-11-03T02:11:40.140Z,4.40
2018-11-03T02:14:08.595Z,4.40
2018-11-03T02:16:37.515Z,4.40
2018-11-03T02:19:05.785Z,4.50
2018-11-03T02:21:34.916Z,4.50
2018-11-03T02:24:03.182Z,4.50
2018-11-03T02:26:31.430Z,4.50
2018-11-03T02:28:59.660Z,4.50
2018-11-03T02:31:27.906Z,4.50
2018-11-03T02:33:56.160Z,4.50
2018-11-03T02:36:24.398Z,4.50
2018-11-03T02:38:52.719Z,4.50
2018-11-03T02:41:21.030Z,4.50
2018-11-03T02:43:49.276Z,4.50
2018-11-03T02:46:17.524Z,4.40
2018-11-03T02:48:45.797Z,4.40
2018-11-03T02:51:14.068Z,4.40
2018-11-03T02:53:42.331Z,4.40
2018-11-03T02:56:10.578Z,4.40
2018-11-03T02:58:38.843Z,4.40
2018-11-03T03:01:07.114Z,4.40
2018-11-03T03:03:35.342Z,4.30
2018-11-03T03:06:03.604Z,4.30
2018-11-03T03:08:31.853Z,4.30
2018-11-03T03:11:00.086Z,4.20
2018-11-03T03:13:28.310Z,4.20
2018-11-03T03:15:56.571Z,4.20
2018-11-03T03:18:26.232Z,4.20
2018-11-03T03:20:54.549Z,4.20
2018-11-03T03:23:22.806Z,4.20
2018-11-03T03:25:51.060Z,4.10
2018-11-03T03:28:19.327Z,4.10
2018-11-03T03:30:47.577Z,4.10
2018-11-03T03:33:15.832Z,4.10
2018-11-03T03:35:45.099Z,4.10
2018-11-03T03:38:13.350Z,4.10
2018-11-03T03:40:41.599Z,4.10
2018-11-03T03:43:09.862Z,4.00
2018-11-03T03:45:38.095Z,4.00
2018-11-03T03:48:06.376Z,4.00
2018-11-03T03:50:34.654Z,4.00
2018-11-03T03:53:02.904Z,4.00
2018-11-03T03:55:31.144Z,4.00
2018-11-03T03:57:59.386Z,4.00
2018-11-03T04:00:27.660Z,4.00
2018-11-03T04:02:55.933Z,4.00
2018-11-03T04:05:24.150Z,4.00
2018-11-03T04:07:52.696Z,4.00
2018-11-03T04:10:20.921Z,4.00
2018-11-03T04:12:49.172Z,4.00
2018-11-03T04:15:18.469Z,4.00
2018-11-03T04:17:46.709Z,4.00
2018-11-03T04:20:15.501Z,4.00
2018-11-03T04:22:43.752Z,4.00
2018-11-03T04:25:12.024Z,3.90
2018-11-03T04:27:40.236Z,3.90
2018-11-03T04:30:11.138Z,3.90
2018-11-03T04:32:39.930Z,3.90
2018-11-03T04:35:08.562Z,3.90
2018-11-03T04:37:36.911Z,3.90
2018-11-03T04:40:06.432Z,3.90
2018-11-03T04:42:34.677Z,3.90
2018-11-03T04:45:03.349Z,3.90
2018-11-03T04:47:31.591Z,3.90
2018-11-03T04:49:59.836Z,3.90
2018-11-03T04:52:28.091Z,3.80
2018-11-03T04:54:56.385Z,3.80
2018-11-03T04:57:24.634Z,3.80
2018-11-03T04:59:52.875Z,3.80
2018-11-03T05:02:21.292Z,3.80
2018-11-03T05:04:49.515Z,3.80
2018-11-03T05:07:17.748Z,3.80
2018-11-03T05:09:46.035Z,3.80
2018-11-03T05:12:14.242Z,3.80
2018-11-03T05:14:42.532Z,3.80
2018-11-03T05:17:10.797Z,3.80
2018-11-03T05:22:13.624Z,3.70
2018-11-03T05:24:41.879Z,3.70
2018-11-03T05:27:13.201Z,3.70
2018-11-03T05:29:41.457Z,3.70
2018-11-03T05:32:09.708Z,3.70
2018-11-03T05:34:37.999Z,3.60
2018-11-03T05:37:06.522Z,3.70
2018-11-03T05:39:35.063Z,3.70
2018-11-03T05:42:03.314Z,3.70
2018-11-03T05:44:31.570Z,3.70
2018-11-03T05:46:59.830Z,3.70
2018-11-03T05:49:28.081Z,3.70
2018-11-03T05:51:56.332Z,3.70
2018-11-03T05:54:24.578Z,3.70
2018-11-03T05:56:52.836Z,3.70
2018-11-03T05:59:21.217Z,3.70
2018-11-03T06:01:49.458Z,3.60
2018-11-03T06:04:17.725Z,3.60
2018-11-03T06:06:45.950Z,3.60
2018-11-03T06:09:14.260Z,3.60
2018-11-03T06:11:42.715Z,3.60
2018-11-03T06:14:10.953Z,3.60
2018-11-03T06:16:39.221Z,3.60
2018-11-03T06:19:07.466Z,3.60
2018-11-03T06:21:35.742Z,3.60
2018-11-03T06:24:04.278Z,3.60
2018-11-03T06:26:32.538Z,3.50
2018-11-03T06:29:00.862Z,3.60
2018-11-03T06:31:29.115Z,3.60
2018-11-03T06:33:57.429Z,3.60
2018-11-03T06:36:25.652Z,3.60
2018-11-03T06:38:53.933Z,3.60
2018-11-03T06:41:22.234Z,3.60
2018-11-03T06:43:50.613Z,3.60
2018-11-03T06:46:19.052Z,3.60
2018-11-03T06:48:48.377Z,3.60
2018-11-03T06:51:17.849Z,3.60
2018-11-03T06:53:46.514Z,3.60
2018-11-03T06:56:15.550Z,3.60
2018-11-03T06:58:44.045Z,3.70
2018-11-03T07:01:13.698Z,3.70
2018-11-03T07:03:42.022Z,3.70
2018-11-03T07:06:10.277Z,3.70
2018-11-03T07:08:38.565Z,3.70
2018-11-03T07:11:06.832Z,3.70
2018-11-03T07:13:35.682Z,3.80
2018-11-03T07:16:03.980Z,3.80
2018-11-03T07:18:32.241Z,3.80
2018-11-03T07:21:00.600Z,3.90
2018-11-03T07:23:28.877Z,3.90
2018-11-03T07:25:57.463Z,3.90
2018-11-03T07:28:25.741Z,4.00
2018-11-03T07:30:54.055Z,4.00
2018-11-03T07:33:22.304Z,4.10
2018-11-03T07:35:50.570Z,4.10
2018-11-03T07:38:18.885Z,4.10
2018-11-03T07:40:47.185Z,4.20
2018-11-03T07:43:15.612Z,4.30
2018-11-03T07:45:43.887Z,4.30
2018-11-03T07:48:12.177Z,4.30
2018-11-03T07:50:40.398Z,4.30
2018-11-03T07:53:08.645Z,4.30
2018-11-03T07:55:36.907Z,4.40
2018-11-03T07:58:05.631Z,4.40
2018-11-03T08:00:34.104Z,4.50
2018-11-03T08:03:02.190Z,4.50
2018-11-03T08:05:30.440Z,4.50
2018-11-03T08:07:58.959Z,4.60
2018-11-03T08:10:27.215Z,4.60
2018-11-03T08:12:55.537Z,4.70
2018-11-03T08:15:23.813Z,4.80
2018-11-03T08:17:52.084Z,4.80
2018-11-03T08:20:20.339Z,4.90
2018-11-03T08:22:48.590Z,4.90
2018-11-03T08:25:16.825Z,5.00
2018-11-03T08:27:45.070Z,5.10
2018-11-03T08:30:14.117Z,5.10
2018-11-03T08:32:42.903Z,5.20
2018-11-03T08:35:12.261Z,5.20
2018-11-03T08:37:41.189Z,5.30
2018-11-03T08:40:11.149Z,5.30
2018-11-03T08:42:39.875Z,5.40
2018-11-03T08:45:13.102Z,5.40
2018-11-03T08:47:41.396Z,5.50
2018-11-03T08:50:10.987Z,5.60
2018-11-03T08:52:39.311Z,5.60
2018-11-03T08:55:08.983Z,5.70
2018-11-03T08:57:37.274Z,5.70
2018-11-03T09:00:14.564Z,5.80
2018-11-03T09:02:43.225Z,5.80
2018-11-03T09:05:12.111Z,5.90
2018-11-03T09:07:40.596Z,6.00
2018-11-03T09:10:11.326Z,6.00
2018-11-03T09:12:39.624Z,6.10
2018-11-03T09:15:10.006Z,6.20
2018-11-03T09:17:39.030Z,6.20
2018-11-03T09:20:08.248Z,6.30
2018-11-03T09:22:37.681Z,6.40
2018-11-03T09:25:09.950Z,6.40
2018-11-03T09:27:38.975Z,6.50
2018-11-03T09:30:09.763Z,6.60
2018-11-03T09:32:38.013Z,6.70
2018-11-03T09:35:07.294Z,6.80
2018-11-03T09:37:35.570Z,6.80
2018-11-03T09:40:05.384Z,6.90
2018-11-03T09:42:34.581Z,7.00
2018-11-03T09:45:03.226Z,7.00
2018-11-03T09:47:31.763Z,7.10
2018-11-03T09:50:00.063Z,7.10
2018-11-03T09:52:29.302Z,7.20
2018-11-03T09:54:57.576Z,7.20
2018-11-03T09:57:25.869Z,7.30
2018-11-03T09:59:55.247Z,7.30
2018-11-03T10:02:23.500Z,7.40
2018-11-03T10:04:51.801Z,7.40
2018-11-03T10:07:20.131Z,7.50
2018-11-03T10:09:48.453Z,7.60
2018-11-03T10:12:16.706Z,7.60
2018-11-03T10:14:44.999Z,7.70
2018-11-03T10:17:13.319Z,7.80
2018-11-03T10:19:41.628Z,7.80
2018-11-03T10:22:09.942Z,7.90
2018-11-03T10:24:38.161Z,7.90
2018-11-03T10:27:13.190Z,8.00
2018-11-03T10:29:41.475Z,8.00
2018-11-03T10:32:09.754Z,8.10
2018-11-03T10:34:38.039Z,8.20
2018-11-03T10:37:07.280Z,8.20
2018-11-03T10:39:36.549Z,8.30
2018-11-03T10:42:05.309Z,8.30
2018-11-03T10:44:33.572Z,8.40
2018-11-03T10:47:02.025Z,8.40
2018-11-03T10:49:30.442Z,8.50
2018-11-03T10:51:58.695Z,8.60
2018-11-03T10:54:27.008Z,8.60
2018-11-03T10:56:56.307Z,8.70
2018-11-03T10:59:24.816Z,8.80
2018-11-03T11:01:58.746Z,8.90
2018-11-03T11:04:32.334Z,8.90
2018-11-03T11:07:05.932Z,9.00
2018-11-03T11:09:39.627Z,9.10
2018-11-03T11:12:16.088Z,9.20
2018-11-03T11:14:44.891Z,9.20
2018-11-03T11:17:13.201Z,9.30
2018-11-03T11:19:41.451Z,9.40
2018-11-03T11:22:09.690Z,9.40
2018-11-03T11:24:38.009Z,9.40
2018-11-03T11:27:12.817Z,9.50
2018-11-03T11:29:41.051Z,9.50
2018-11-03T11:32:09.316Z,9.60
2018-11-03T11:34:37.539Z,9.60
2018-11-03T11:37:05.904Z,9.70
2018-11-03T11:39:34.206Z,9.70
2018-11-03T11:42:02.512Z,9.70
2018-11-03T11:44:30.753Z,9.70
2018-11-03T11:46:59.002Z,9.80
2018-11-03T11:49:27.287Z,9.80
2018-11-03T11:51:55.557Z,9.80
2018-11-03T11:54:23.842Z,9.90
2018-11-03T11:56:52.114Z,9.90
2018-11-03T11:59:20.446Z,9.90
2018-11-03T12:01:48.733Z,9.90
2018-11-03T12:04:17.055Z,10.00
2018-11-03T12:06:45.325Z,10.00
2018-11-03T12:09:14.340Z,10.00
2018-11-03T12:11:42.651Z,10.00
2018-11-03T12:14:10.895Z,10.00
2018-11-03T12:16:39.176Z,10.10
2018-11-03T12:19:07.434Z,10.10
2018-11-03T12:21:35.729Z,10.10
2018-11-03T12:24:04.163Z,10.10
2018-11-03T12:26:32.418Z,10.10
2018-11-03T12:29:00.654Z,10.10
2018-11-03T12:31:28.946Z,10.10
2018-11-03T12:33:57.234Z,10.10
2018-11-03T12:36:25.470Z,10.10
2018-11-03T12:38:53.709Z,10.10
2018-11-03T12:41:22.003Z,10.10
2018-11-03T12:43:50.280Z,10.10
2018-11-03T12:46:18.553Z,10.10
2018-11-03T12:48:46.795Z,10.10
2018-11-03T12:51:15.154Z,10.10
2018-11-03T12:53:43.449Z,10.10
2018-11-03T12:56:11.696Z,10.10
2018-11-03T12:58:39.942Z,10.10
2018-11-03T13:01:08.480Z,10.00
2018-11-03T13:03:36.789Z,10.00
2018-11-03T13:06:05.054Z,10.00
2018-11-03T13:08:33.300Z,10.00
2018-11-03T13:11:01.614Z,10.10
2018-11-03T13:13:29.881Z,10.10
2018-11-03T13:15:58.144Z,10.10
2018-11-03T13:18:26.416Z,10.10
2018-11-03T13:20:54.691Z,10.10
2018-11-03T13:23:22.946Z,10.10
2018-11-03T13:25:51.213Z,10.10
2018-11-03T13:28:19.493Z,10.10
2018-11-03T13:30:47.763Z,10.10
2018-11-03T13:33:16.044Z,10.10
2018-11-03T13:35:44.313Z,10.10
2018-11-03T13:38:12.548Z,10.10
2018-11-03T13:40:41.165Z,10.10
2018-11-03T13:43:09.409Z,10.10
2018-11-03T13:45:37.671Z,10.00
2018-11-03T13:48:06.001Z,10.00
2018-11-03T13:50:34.459Z,10.00
2018-11-03T13:53:03.084Z,10.00
2018-11-03T13:55:31.369Z,10.00
2018-11-03T13:57:59.662Z,9.90
2018-11-03T14:00:28.045Z,9.90
2018-11-03T14:02:56.430Z,9.90
2018-11-03T14:05:24.733Z,9.90
2018-11-03T14:07:52.965Z,10.00
2018-11-03T14:10:21.236Z,10.00
2018-11-03T14:12:49.466Z,10.00
2018-11-03T14:15:18.329Z,10.00
2018-11-03T14:17:46.505Z,10.00
2018-11-03T14:20:15.688Z,10.00
2018-11-03T14:22:44.665Z,10.00
2018-11-03T14:25:14.140Z,10.10
2018-11-03T14:27:43.594Z,10.10
2018-11-03T14:30:12.499Z,10.10
2018-11-03T14:32:40.775Z,10.10
2018-11-03T14:35:09.809Z,10.00
2018-11-03T14:37:38.043Z,10.00
2018-11-03T14:40:09.014Z,9.90
2018-11-03T14:42:37.512Z,9.90
2018-11-03T14:45:12.396Z,9.90
2018-11-03T14:47:40.829Z,9.80
2018-11-03T14:50:09.388Z,9.80
2018-11-03T14:52:38.755Z,9.70
2018-11-03T14:55:09.439Z,9.70
2018-11-03T14:57:37.734Z,9.70
2018-11-03T15:00:14.977Z,9.60
2018-11-03T15:02:43.250Z,9.60
2018-11-03T15:05:12.368Z,9.50
2018-11-03T15:07:40.644Z,9.50
2018-11-03T15:10:10.002Z,9.40
2018-11-03T15:12:38.268Z,9.40
2018-11-03T15:15:08.128Z,9.30
2018-11-03T15:17:36.365Z,9.30
2018-11-03T15:20:05.647Z,9.30
2018-11-03T15:22:33.893Z,9.20
2018-11-03T15:25:02.295Z,9.20
2018-11-03T15:27:30.710Z,9.10
2018-11-03T15:29:59.000Z,9.10
2018-11-03T15:32:27.429Z,9.00
2018-11-03T15:34:55.802Z,9.00
2018-11-03T15:37:24.005Z,8.90
2018-11-03T15:39:52.271Z,8.80
2018-11-03T15:42:21.467Z,8.80
2018-11-03T15:44:50.047Z,8.70
2018-11-03T15:47:19.205Z,8.70
2018-11-03T15:49:47.567Z,8.60
2018-11-03T15:52:16.011Z,8.50
2018-11-03T15:54:44.438Z,8.50
2018-11-03T15:57:12.808Z,8.40
2018-11-03T15:59:41.146Z,8.40
2018-11-03T16:02:09.386Z,8.30
2018-11-03T16:04:37.655Z,8.20
2018-11-03T16:07:06.193Z,8.20
2018-11-03T16:09:34.465Z,8.20
2018-11-03T16:12:02.793Z,8.10
2018-11-03T16:14:31.034Z,8.10
2018-11-03T16:16:59.323Z,8.10
2018-11-03T16:19:27.563Z,8.00
2018-11-03T16:21:55.951Z,8.00
2018-11-03T16:24:24.229Z,7.90
2018-11-03T16:26:52.484Z,7.90
2018-11-03T16:29:20.775Z,7.80
2018-11-03T16:31:49.053Z,7.80
2018-11-03T16:34:18.146Z,7.80
2018-11-03T16:36:46.426Z,7.80
2018-11-03T16:39:14.727Z,7.70
2018-11-03T16:41:43.024Z,7.70
2018-11-03T16:44:11.425Z,7.60
2018-11-03T16:46:39.657Z,7.60
2018-11-03T16:49:07.922Z,7.50
2018-11-03T16:51:36.166Z,7.50
2018-11-03T16:54:16.698Z,7.50
2018-11-03T16:57:06.528Z,7.50
2018-11-03T16:59:49.641Z,7.40
2018-11-03T17:02:18.105Z,7.40
2018-11-03T17:04:47.422Z,7.40
2018-11-03T17:07:15.853Z,7.30
2018-11-03T17:09:44.424Z,7.30
2018-11-03T17:12:12.808Z,7.20
2018-11-03T17:14:41.076Z,7.20
2018-11-03T17:17:09.396Z,7.20
2018-11-03T17:19:37.726Z,7.20
2018-11-03T17:22:06.165Z,7.10
2018-11-03T17:24:34.683Z,7.10
2018-11-03T17:27:03.599Z,7.10
2018-11-03T17:29:34.845Z,7.00
2018-11-03T17:32:03.199Z,7.00
2018-11-03T17:34:31.986Z,7.00
2018-11-03T17:37:00.496Z,7.00
2018-11-03T17:39:30.035Z,7.00
2018-11-03T17:41:58.399Z,7.00
2018-11-03T17:44:27.282Z,6.90
2018-11-03T17:46:57.278Z,6.90
2018-11-03T17:49:26.292Z,6.90
2018-11-03T17:51:55.358Z,6.90
2018-11-03T17:54:24.399Z,6.90
2018-11-03T17:56:52.703Z,6.90
2018-11-03T17:59:20.987Z,6.90
2018-11-03T18:01:49.925Z,6.80
2018-11-03T18:04:18.319Z,6.80
2018-11-03T18:06:48.937Z,6.80
2018-11-03T18:09:25.653Z,6.70
2018-11-03T18:11:54.093Z,6.70
2018-11-03T18:14:22.562Z,6.70
2018-11-03T18:16:51.285Z,6.60
2018-11-03T18:19:20.782Z,6.60
2018-11-03T18:21:49.164Z,6.60
2018-11-03T18:24:17.616Z,6.60
2018-11-03T18:26:46.716Z,6.60
2018-11-03T18:29:15.011Z,6.50
2018-11-03T18:31:43.319Z,6.50
2018-11-03T18:34:12.516Z,6.50
2018-11-03T18:36:40.864Z,6.40
2018-11-03T18:39:10.068Z,6.40
2018-11-03T18:41:38.800Z,6.40
2018-11-03T18:44:10.501Z,6.30
2018-11-03T18:46:39.778Z,6.30
2018-11-03T18:49:09.335Z,6.30
2018-11-03T18:51:37.819Z,6.20
2018-11-03T18:54:06.178Z,6.20
2018-11-03T18:56:34.427Z,6.20
2018-11-03T18:59:02.717Z,6.10
2018-11-03T19:01:31.153Z,6.10
2018-11-03T19:03:59.588Z,6.10
2018-11-03T19:06:27.860Z,6.00
2018-11-03T19:08:56.112Z,6.00
2018-11-03T19:11:24.678Z,6.00
2018-11-03T19:13:54.011Z,5.90
2018-11-03T19:16:22.306Z,5.90
2018-11-03T19:18:51.201Z,5.90
2018-11-03T19:21:19.451Z,5.80
2018-11-03T19:23:47.916Z,5.80
2018-11-03T19:26:16.148Z,5.80
2018-11-03T19:28:44.770Z,5.80
2018-11-03T19:31:13.030Z,5.70
2018-11-03T19:33:41.324Z,5.70
2018-11-03T19:36:09.858Z,5.70
2018-11-03T19:38:38.207Z,5.70
2018-11-03T19:41:12.111Z,5.60
2018-11-03T19:46:31.627Z,5.60
2018-11-03T19:49:00.145Z,5.50
2018-11-03T19:51:28.668Z,5.90
2018-11-03T19:54:00.274Z,5.80
2018-11-03T19:56:28.594Z,5.70
2018-11-03T19:58:56.907Z,5.60
2018-11-03T20:01:25.281Z,5.50
2018-11-03T20:03:58.208Z,5.40
2018-11-03T20:06:34.183Z,5.40
2018-11-03T20:09:08.692Z,5.30
2018-11-03T20:11:44.289Z,5.30
2018-11-03T20:14:17.676Z,5.30
2018-11-03T20:16:48.268Z,5.20
2018-11-03T20:24:39.951Z,5.20
2018-11-03T20:29:56.477Z,5.10
2018-11-03T20:32:26.015Z,5.10
2018-11-03T20:37:58.170Z,5.00
2018-11-03T20:40:36.673Z,4.90
2018-11-03T20:43:10.226Z,4.90
2018-11-03T20:48:34.276Z,4.80
2018-11-03T20:51:15.908Z,4.80
2018-11-03T20:56:42.248Z,4.70
2018-11-03T20:59:15.337Z,4.70
2018-11-03T21:04:27.636Z,4.60
2018-11-03T21:07:11.884Z,4.60
2018-11-03T21:09:45.710Z,4.60
2018-11-03T21:12:23.738Z,4.60
2018-11-03T21:14:57.114Z,4.60
2018-11-03T21:17:31.218Z,4.50
2018-11-03T21:23:08.674Z,4.50
2018-11-03T21:25:37.590Z,4.50
2018-11-03T21:28:06.274Z,4.50
2018-11-03T21:30:34.613Z,4.50
2018-11-03T21:33:03.148Z,4.40
2018-11-03T21:35:31.391Z,4.40
2018-11-03T21:37:59.686Z,4.40
2018-11-03T21:40:28.056Z,4.40
2018-11-03T21:42:56.421Z,4.40
2018-11-03T21:45:24.939Z,4.40
2018-11-03T21:47:53.292Z,4.40
2018-11-03T21:50:21.895Z,4.40
2018-11-03T21:52:50.315Z,4.30
2018-11-03T21:55:18.661Z,4.30
2018-11-03T21:57:47.052Z,4.40
2018-11-03T22:00:15.465Z,4.40
2018-11-03T22:02:43.969Z,4.30
2018-11-03T22:05:13.429Z,4.30
2018-11-03T22:07:42.605Z,4.30
2018-11-03T22:10:11.023Z,4.30
2018-11-03T22:12:40.155Z,4.30
2018-11-03T22:15:08.913Z,4.30
2018-11-03T22:17:37.209Z,4.20
2018-11-03T22:20:06.250Z,4.20
2018-11-03T22:22:34.820Z,4.10
2018-11-03T22:25:03.249Z,4.10
2018-11-03T22:27:32.514Z,4.10
2018-11-03T22:30:00.799Z,4.00
2018-11-03T22:32:29.099Z,4.00
2018-11-03T22:34:57.437Z,3.90
2018-11-03T22:37:25.754Z,3.90
2018-11-03T22:39:54.045Z,3.80
2018-11-03T22:42:22.438Z,3.80
2018-11-03T22:44:50.924Z,3.80
2018-11-03T22:47:19.208Z,3.80
2018-11-03T22:49:47.518Z,3.80
2018-11-03T22:52:15.805Z,3.80
2018-11-03T22:54:44.171Z,3.80
2018-11-03T22:57:12.684Z,3.80
2018-11-03T22:59:40.974Z,3.80
2018-11-03T23:02:09.291Z,3.80
2018-11-03T23:04:37.643Z,3.80
2018-11-03T23:07:05.945Z,3.80
2018-11-03T23:09:34.205Z,3.80
2018-11-03T23:12:03.595Z,3.80
2018-11-03T23:14:31.879Z,3.90
2018-11-03T23:17:00.195Z,3.90
2018-11-03T23:19:28.749Z,3.90
2018-11-03T23:21:57.276Z,3.90
2018-11-03T23:24:25.558Z,3.90
2018-11-03T23:26:53.821Z,3.90
2018-11-03T23:29:22.155Z,3.90
2018-11-03T23:31:50.357Z,3.90
2018-11-03T23:34:18.602Z,3.90
2018-11-03T23:36:46.870Z,3.90
2018-11-03T23:39:15.134Z,3.90
2018-11-03T23:41:43.368Z,3.90
2018-11-03T23:44:11.694Z,3.90
2018-11-03T23:46:40.191Z,3.90
2018-11-03T23:49:08.459Z,3.90
2018-11-03T23:51:36.697Z,3.80
2018-11-03T23:54:12.629Z,3.80
2018-11-03T23:56:40.919Z,3.80
2018-11-03T23:59:09.188Z,3.80
